Time;durP1;ratioP1;P1;durP2;ratioP2;P2;SDS_P1;SDS_P2;PMS_P1;PMS_P2;Temp;Humidity;BMP_temperature;BMP_pressure;BME280_temperature;BME280_humidity;BME280_pressure;Samples;Min_cycle;Max_cycle;Signal;HPM_P1;HPM_P2
2022/01/02 00:00:09;;;;;;;7.75;4.15;;;12.20;99.90;;;;;;5114914;28;20264;-64
2022/01/02 00:02:36;;;;;;;6.47;4.00;;;12.20;99.90;;;;;;5114649;28;20175;-64
2022/01/02 00:05:05;;;;;;;7.53;3.80;;;12.20;99.90;;;;;;5115002;28;20204;-64
2022/01/02 00:07:35;;;;;;;7.57;4.28;;;12.20;99.90;;;;;;5114985;28;20526;-64
2022/01/02 00:10:05;;;;;;;6.28;4.05;;;12.20;99.90;;;;;;5114671;28;20173;-64
2022/01/02 00:12:34;;;;;;;5.78;4.13;;;12.20;99.90;;;;;;5114964;27;20160;-64
2022/01/02 00:15:04;;;;;;;7.82;4.10;;;12.10;99.90;;;;;;5113688;28;20184;-64
2022/01/02 00:17:30;;;;;;;6.38;3.67;;;12.00;99.90;;;;;;5114765;28;20213;-64
2022/01/02 00:20:03;;;;;;;6.60;3.90;;;12.00;99.90;;;;;;5114762;28;20188;-64
2022/01/02 00:22:35;;;;;;;5.63;4.00;;;11.90;99.90;;;;;;5114901;28;20157;-64
2022/01/02 00:25:06;;;;;;;7.57;4.35;;;12.00;99.90;;;;;;5114712;28;20168;-64
2022/01/02 00:27:35;;;;;;;7.25;4.32;;;12.00;99.90;;;;;;5114591;28;20173;-64
2022/01/02 00:30:03;;;;;;;8.65;3.97;;;12.00;99.90;;;;;;5114600;28;20177;-64
2022/01/02 00:32:32;;;;;;;6.80;4.20;;;12.00;99.90;;;;;;5114526;28;20166;-64
2022/01/02 00:34:59;;;;;;;8.68;4.28;;;12.00;99.90;;;;;;5114498;28;20165;-64
2022/01/02 00:37:25;;;;;;;6.25;3.85;;;11.90;99.90;;;;;;5114400;28;20270;-64
2022/01/02 00:39:51;;;;;;;7.20;3.50;;;11.90;99.90;;;;;;5114485;28;20176;-64
2022/01/02 00:42:39;;;;;;;9.85;3.92;;;11.90;99.90;;;;;;5114419;28;20510;-64
2022/01/02 00:45:07;;;;;;;5.88;3.83;;;11.80;99.90;;;;;;5114395;28;20162;-64
2022/01/02 00:47:47;;;;;;;9.77;4.35;;;11.80;99.90;;;;;;5114526;28;20173;-64
2022/01/02 00:50:14;;;;;;;6.40;4.38;;;11.80;99.90;;;;;;5114331;28;20248;-64
2022/01/02 00:52:42;;;;;;;7.18;4.15;;;11.80;99.90;;;;;;5114186;28;20173;-64
2022/01/02 00:55:12;;;;;;;9.20;4.55;;;11.80;99.90;;;;;;5114249;28;20174;-64
2022/01/02 00:57:40;;;;;;;7.00;4.35;;;11.80;99.90;;;;;;5114051;28;20274;-65
2022/01/02 01:00:16;;;;;;;7.50;4.35;;;11.90;99.90;;;;;;5113828;28;20178;-64
2022/01/02 01:02:54;;;;;;;9.23;4.35;;;11.80;99.90;;;;;;5113902;28;20609;-66
2022/01/02 01:05:27;;;;;;;9.80;4.30;;;11.80;99.90;;;;;;5114289;28;20160;-64
2022/01/02 01:07:55;;;;;;;6.90;3.95;;;11.70;99.90;;;;;;5113790;28;20158;-64
2022/01/02 01:10:22;;;;;;;8.85;3.83;;;11.70;99.90;;;;;;5113970;28;20204;-64
2022/01/02 01:12:52;;;;;;;5.35;3.60;;;11.70;99.90;;;;;;5113878;28;20242;-64
2022/01/02 01:15:18;;;;;;;4.65;4.07;;;11.80;99.90;;;;;;5113961;28;20248;-64
2022/01/02 01:17:45;;;;;;;7.63;3.95;;;11.80;99.90;;;;;;5113928;28;20301;-64
2022/01/02 01:20:13;;;;;;;6.82;3.95;;;11.80;99.90;;;;;;5113887;28;20207;-64
2022/01/02 01:22:44;;;;;;;8.65;4.13;;;11.80;99.90;;;;;;5113822;28;20177;-64
2022/01/02 01:25:16;;;;;;;9.23;4.30;;;11.80;99.90;;;;;;5113957;28;20607;-64
2022/01/02 01:27:43;;;;;;;7.47;3.83;;;11.70;99.90;;;;;;5113807;28;20307;-64
2022/01/02 01:30:10;;;;;;;8.13;3.80;;;11.80;99.90;;;;;;5113793;28;20518;-64
2022/01/02 01:32:36;;;;;;;6.78;3.63;;;11.80;99.90;;;;;;5112497;28;20221;-64
2022/01/02 01:35:04;;;;;;;8.77;4.18;;;11.80;99.90;;;;;;5112461;28;20534;-64
2022/01/02 01:37:30;;;;;;;5.75;3.53;;;11.90;99.90;;;;;;5113686;28;20193;-64
2022/01/02 01:39:55;;;;;;;8.60;3.88;;;11.80;99.90;;;;;;5113816;28;20177;-64
2022/01/02 01:42:32;;;;;;;7.00;3.75;;;11.80;99.90;;;;;;5114029;28;20261;-64
2022/01/02 01:45:42;;;;;;;7.13;3.95;;;11.80;99.90;;;;;;5114305;28;20609;-64
2022/01/02 01:48:04;;;;;;;7.65;4.10;;;11.80;99.90;;;;;;5110482;28;20197;-64
2022/01/02 01:50:37;;;;;;;9.43;4.32;;;11.80;99.90;;;;;;5113747;28;20158;-64
2022/01/02 01:53:04;;;;;;;6.82;3.80;;;11.90;99.90;;;;;;5113714;28;20162;-64
2022/01/02 01:55:30;;;;;;;7.20;3.72;;;11.90;99.90;;;;;;5113534;28;20208;-64
2022/01/02 01:57:56;;;;;;;6.22;3.67;;;11.90;99.90;;;;;;5113169;28;20579;-64
2022/01/02 02:00:23;;;;;;;7.40;4.00;;;11.90;99.90;;;;;;5113220;28;20276;-64
2022/01/02 02:02:49;;;;;;;7.03;3.97;;;11.90;99.90;;;;;;5113519;28;20519;-64
2022/01/02 02:05:15;;;;;;;7.53;3.85;;;12.00;99.90;;;;;;5113455;28;20173;-64
2022/01/02 02:07:43;;;;;;;7.97;3.92;;;12.00;99.90;;;;;;5113492;28;20170;-64
2022/01/02 02:10:23;;;;;;;11.60;3.78;;;11.90;99.90;;;;;;5113423;28;20166;-64
2022/01/02 02:12:52;;;;;;;9.35;3.95;;;11.90;99.90;;;;;;5113490;28;20164;-64
2022/01/02 02:15:18;;;;;;;6.93;4.15;;;12.00;99.90;;;;;;5113091;28;20161;-64
2022/01/02 02:17:46;;;;;;;7.10;3.97;;;12.00;99.90;;;;;;5111962;28;20208;-64
2022/01/02 02:20:15;;;;;;;8.02;4.13;;;12.10;99.90;;;;;;5113031;28;20165;-64
2022/01/02 02:22:44;;;;;;;7.82;4.13;;;12.00;99.90;;;;;;5113293;28;20222;-64
2022/01/02 02:25:11;;;;;;;7.20;3.75;;;12.00;99.90;;;;;;5115401;28;20173;-64
2022/01/02 02:27:37;;;;;;;5.97;3.53;;;12.00;99.90;;;;;;5116941;28;20695;-64
2022/01/02 02:30:04;;;;;;;7.28;3.65;;;11.90;99.90;;;;;;5116898;28;20197;-64
2022/01/02 02:32:30;;;;;;;9.70;4.53;;;12.00;99.90;;;;;;5116871;28;20180;-64
2022/01/02 02:34:56;;;;;;;6.05;3.25;;;11.90;99.90;;;;;;5116882;28;20173;-63
2022/01/02 02:37:22;;;;;;;8.70;3.80;;;11.90;99.90;;;;;;5116734;28;20292;-64
2022/01/02 02:39:48;;;;;;;11.15;3.58;;;11.90;99.90;;;;;;5116797;28;20269;-64
2022/01/02 02:42:27;;;;;;;6.97;3.92;;;11.90;99.90;;;;;;5116749;28;20188;-64
2022/01/02 02:44:59;;;;;;;6.85;3.58;;;11.80;99.90;;;;;;5117130;28;20173;-64
2022/01/02 02:50:09;;;;;;;6.43;3.45;;;11.90;99.90;;;;;;5117195;28;20523;-64
2022/01/02 02:52:44;;;;;;;7.43;4.00;;;11.90;99.90;;;;;;5116525;28;20170;-64
2022/01/02 02:55:10;;;;;;;6.93;3.58;;;11.90;99.90;;;;;;5116495;28;20167;-64
2022/01/02 02:57:38;;;;;;;7.57;3.63;;;12.00;99.90;;;;;;5116321;28;20197;-64
2022/01/02 03:00:04;;;;;;;5.50;3.17;;;12.00;99.90;;;;;;5116376;28;20180;-64
2022/01/02 03:02:30;;;;;;;5.25;3.22;;;12.00;99.90;;;;;;5115972;28;20181;-64
2022/01/02 03:04:55;;;;;;;8.63;3.63;;;11.90;99.90;;;;;;5116285;28;20265;-64
2022/01/02 03:07:21;;;;;;;8.40;3.75;;;12.00;99.90;;;;;;5116192;28;20177;-64
2022/01/02 03:09:49;;;;;;;7.50;3.97;;;11.90;99.90;;;;;;5116214;28;20215;-64
2022/01/02 03:12:15;;;;;;;5.80;3.72;;;12.00;99.90;;;;;;5116116;28;20187;-64
2022/01/02 03:14:41;;;;;;;5.30;3.30;;;12.00;99.90;;;;;;5116071;28;20173;-64
2022/01/02 03:17:07;;;;;;;7.35;3.75;;;12.00;99.90;;;;;;5115602;28;20267;-64
2022/01/02 03:19:33;;;;;;;6.70;3.80;;;12.00;99.90;;;;;;5115958;28;20615;-64
2022/01/02 03:22:00;;;;;;;4.90;3.60;;;12.00;99.90;;;;;;5114883;28;20286;-64
2022/01/02 03:24:26;;;;;;;6.32;3.40;;;12.00;99.90;;;;;;5115926;28;20218;-64
2022/01/02 03:26:51;;;;;;;4.80;3.50;;;12.00;99.90;;;;;;5115838;28;20181;-64
2022/01/02 03:29:17;;;;;;;8.02;3.67;;;11.90;99.90;;;;;;5115794;28;20184;-64
2022/01/02 03:31:43;;;;;;;7.15;3.33;;;12.00;99.90;;;;;;5115793;28;20165;-64
2022/01/02 03:34:09;;;;;;;5.93;3.22;;;12.00;99.90;;;;;;5115735;28;20171;-64
2022/01/02 03:36:34;;;;;;;6.88;3.50;;;12.00;99.90;;;;;;5114643;28;20177;-64
2022/01/02 03:39:00;;;;;;;5.47;3.42;;;12.00;99.90;;;;;;5116218;28;20192;-64
2022/01/02 03:41:26;;;;;;;6.93;3.42;;;12.10;99.90;;;;;;5115923;28;20249;-64
2022/01/02 03:43:51;;;;;;;6.10;3.47;;;12.10;99.90;;;;;;5115255;28;20264;-64
2022/01/02 03:46:17;;;;;;;5.95;3.65;;;12.00;99.90;;;;;;5115054;28;20572;-64
2022/01/02 03:48:43;;;;;;;6.82;3.90;;;11.90;99.90;;;;;;5115718;28;20218;-64
2022/01/02 03:51:09;;;;;;;6.43;3.28;;;11.90;99.90;;;;;;5115416;28;20618;-64
2022/01/02 03:53:35;;;;;;;6.20;3.75;;;11.90;99.90;;;;;;5114054;28;20188;-64
2022/01/02 03:56:01;;;;;;;5.45;3.45;;;11.90;99.90;;;;;;5115255;28;20188;-64
2022/01/02 03:58:27;;;;;;;4.60;3.20;;;11.90;99.90;;;;;;5115153;28;20208;-64
2022/01/02 04:00:52;;;;;;;8.60;3.65;;;11.70;99.90;;;;;;5114867;28;20181;-64
2022/01/02 04:03:18;;;;;;;5.40;3.55;;;11.80;99.90;;;;;;5115175;28;20256;-64
2022/01/02 04:05:44;;;;;;;6.28;4.32;;;11.70;99.90;;;;;;5115100;28;20181;-64
2022/01/02 04:08:10;;;;;;;6.55;4.00;;;11.60;99.90;;;;;;5114999;28;20276;-64
2022/01/02 04:10:36;;;;;;;6.82;3.63;;;11.70;99.90;;;;;;5113761;28;20173;-64
2022/01/02 04:13:02;;;;;;;6.45;3.70;;;11.70;99.90;;;;;;5114928;28;20542;-64
2022/01/02 04:15:28;;;;;;;6.63;4.07;;;11.70;99.90;;;;;;5114645;28;20260;-64
2022/01/02 04:17:53;;;;;;;6.53;3.92;;;11.70;99.90;;;;;;5114351;28;20254;-64
2022/01/02 04:20:19;;;;;;;7.82;4.28;;;11.80;99.90;;;;;;5113372;28;20242;-64
2022/01/02 04:22:45;;;;;;;7.45;4.18;;;11.70;99.90;;;;;;5113487;28;20169;-64
2022/01/02 04:25:11;;;;;;;7.07;3.53;;;11.70;99.90;;;;;;5114878;28;20181;-63
2022/01/02 04:27:37;;;;;;;6.88;3.47;;;11.70;99.90;;;;;;5114684;28;20661;-64
2022/01/02 04:30:06;;;;;;;7.20;3.58;;;11.70;99.90;;;;;;5114602;28;20181;-64
2022/01/02 04:32:31;;;;;;;6.22;3.50;;;11.60;99.90;;;;;;5114536;28;20193;-63
2022/01/02 04:34:57;;;;;;;5.78;3.33;;;11.70;99.90;;;;;;5114615;28;20212;-64
2022/01/02 04:37:23;;;;;;;5.05;3.35;;;11.70;99.90;;;;;;5114766;28;20665;-64
2022/01/02 04:39:48;;;;;;;5.05;3.05;;;11.60;99.90;;;;;;5114508;28;20177;-63
2022/01/02 04:42:14;;;;;;;6.55;3.42;;;11.60;99.90;;;;;;5114394;28;20671;-63
2022/01/02 04:44:40;;;;;;;6.80;3.25;;;11.70;99.90;;;;;;5114414;28;20177;-64
2022/01/02 04:47:05;;;;;;;4.07;3.03;;;11.60;99.90;;;;;;5112473;28;20284;-64
2022/01/02 04:49:31;;;;;;;3.53;3.22;;;11.60;99.90;;;;;;5114351;28;20616;-64
2022/01/02 04:51:56;;;;;;;5.10;3.10;;;11.60;99.90;;;;;;5113133;28;20169;-64
2022/01/02 04:54:23;;;;;;;4.70;3.40;;;11.60;99.90;;;;;;5113956;28;20177;-64
2022/01/02 04:56:49;;;;;;;5.95;3.00;;;11.60;99.90;;;;;;5114087;28;20722;-64
2022/01/02 04:59:14;;;;;;;4.03;2.88;;;11.60;99.90;;;;;;5114178;28;20177;-63
2022/01/02 05:01:40;;;;;;;5.60;3.45;;;11.60;99.90;;;;;;5114134;28;20508;-64
2022/01/02 05:04:06;;;;;;;5.80;3.30;;;11.60;99.90;;;;;;5114426;28;20197;-64
2022/01/02 05:06:31;;;;;;;4.82;3.50;;;11.70;99.90;;;;;;5114043;28;20204;-64
2022/01/02 05:08:57;;;;;;;7.07;3.63;;;11.70;99.90;;;;;;5113769;28;20169;-63
2022/01/02 05:11:23;;;;;;;6.13;3.33;;;11.60;99.90;;;;;;5113993;28;20166;-64
2022/01/02 05:13:48;;;;;;;5.95;3.70;;;11.60;99.90;;;;;;5113990;28;20185;-63
2022/01/02 05:16:14;;;;;;;5.35;3.85;;;11.60;99.90;;;;;;5112361;28;20562;-63
2022/01/02 05:18:40;;;;;;;6.03;3.47;;;11.70;99.90;;;;;;5113941;28;20200;-64
2022/01/02 05:21:06;;;;;;;4.22;3.30;;;11.60;99.90;;;;;;5113600;28;20176;-63
2022/01/02 05:23:32;;;;;;;6.40;3.25;;;11.60;99.90;;;;;;5113543;28;20569;-63
2022/01/02 05:25:57;;;;;;;6.15;3.38;;;11.70;99.90;;;;;;5113856;28;20174;-64
2022/01/02 05:28:23;;;;;;;5.53;3.28;;;11.60;99.90;;;;;;5113881;28;20181;-64
2022/01/02 05:30:49;;;;;;;6.57;3.47;;;11.60;99.90;;;;;;5113850;28;20182;-64
2022/01/02 05:33:15;;;;;;;5.18;3.50;;;11.70;99.90;;;;;;5113989;28;20577;-64
2022/01/02 05:35:41;;;;;;;4.90;3.15;;;11.70;99.90;;;;;;5113382;28;20568;-64
2022/01/02 05:38:06;;;;;;;5.65;3.10;;;11.70;99.90;;;;;;5113868;28;20666;-64
2022/01/02 05:40:33;;;;;;;5.55;3.42;;;11.70;99.90;;;;;;5113705;28;20203;-64
2022/01/02 05:43:00;;;;;;;4.65;3.35;;;11.70;99.90;;;;;;5113697;28;20526;-64
2022/01/02 05:45:26;;;;;;;6.45;3.30;;;11.60;99.90;;;;;;5113495;28;20538;-64
2022/01/02 05:47:52;;;;;;;4.35;2.83;;;11.60;99.90;;;;;;5113987;28;20181;-64
2022/01/02 05:50:18;;;;;;;5.60;3.35;;;11.60;99.90;;;;;;5113674;28;20193;-64
2022/01/02 05:52:43;;;;;;;3.97;3.15;;;11.60;99.90;;;;;;5113564;28;20212;-64
2022/01/02 05:55:09;;;;;;;6.25;3.20;;;11.60;99.90;;;;;;5112410;28;20204;-64
2022/01/02 05:57:35;;;;;;;3.97;2.90;;;11.60;99.90;;;;;;5113497;28;20201;-64
2022/01/02 06:00:01;;;;;;;4.50;2.90;;;11.60;99.90;;;;;;5115571;28;20177;-64
2022/01/02 06:02:26;;;;;;;8.02;3.58;;;11.60;99.90;;;;;;5117548;28;20189;-66
2022/01/02 06:04:52;;;;;;;4.57;2.80;;;11.50;99.90;;;;;;5117421;28;20207;-64
2022/01/02 06:07:18;;;;;;;4.43;2.88;;;11.50;99.90;;;;;;5117080;28;20382;-64
2022/01/02 06:09:43;;;;;;;10.05;3.25;;;11.60;99.90;;;;;;5117064;28;20184;-64
2022/01/02 06:12:09;;;;;;;4.40;3.03;;;11.60;99.90;;;;;;5117292;28;20188;-64
2022/01/02 06:14:34;;;;;;;6.30;3.15;;;11.60;99.90;;;;;;5117634;28;20169;-64
2022/01/02 06:17:00;;;;;;;5.03;3.08;;;11.60;99.90;;;;;;5117071;28;20570;-64
2022/01/02 06:19:26;;;;;;;6.22;2.90;;;11.70;99.90;;;;;;5117213;28;20181;-64
2022/01/02 06:21:51;;;;;;;4.80;3.10;;;11.70;99.90;;;;;;5117129;28;20177;-64
2022/01/02 06:24:17;;;;;;;6.60;3.00;;;11.60;99.90;;;;;;5117070;28;20188;-64
2022/01/02 06:26:43;;;;;;;4.78;3.08;;;11.60;99.90;;;;;;5117385;28;20177;-64
2022/01/02 06:29:09;;;;;;;4.85;2.78;;;11.50;99.90;;;;;;5117018;28;20661;-64
2022/01/02 06:31:34;;;;;;;3.95;2.90;;;11.60;99.90;;;;;;5116979;28;20169;-64
2022/01/02 06:34:01;;;;;;;6.10;2.80;;;11.50;99.90;;;;;;5116905;28;20180;-64
2022/01/02 06:36:26;;;;;;;4.05;3.00;;;11.50;99.90;;;;;;5116879;28;20256;-64
2022/01/02 06:38:52;;;;;;;4.05;3.03;;;11.60;99.90;;;;;;5116768;28;20300;-64
2022/01/02 06:41:18;;;;;;;6.45;2.95;;;11.50;99.90;;;;;;5098554;28;20177;-64
2022/01/02 06:43:43;;;;;;;4.45;2.80;;;11.50;99.90;;;;;;5116763;28;20173;-64
2022/01/02 06:46:09;;;;;;;4.35;3.00;;;11.40;99.90;;;;;;5116502;28;20234;-66
2022/01/02 06:48:36;;;;;;;4.93;2.80;;;11.40;99.90;;;;;;5116617;28;20181;-65
2022/01/02 06:51:02;;;;;;;3.22;2.70;;;11.40;99.90;;;;;;5116894;28;20623;-65
2022/01/02 06:53:28;;;;;;;7.05;3.33;;;11.50;99.90;;;;;;5116572;28;20263;-65
2022/01/02 06:55:53;;;;;;;4.93;3.17;;;11.50;99.90;;;;;;5116466;28;20527;-64
2022/01/02 06:58:19;;;;;;;2.92;2.50;;;11.50;99.90;;;;;;5115870;28;20225;-65
2022/01/02 07:00:45;;;;;;;5.05;3.05;;;11.50;99.90;;;;;;5116043;28;20178;-65
2022/01/02 07:03:11;;;;;;;3.75;2.63;;;11.50;99.90;;;;;;5115039;28;20574;-65
2022/01/02 07:05:36;;;;;;;3.25;2.80;;;11.60;99.90;;;;;;5115324;28;20177;-65
2022/01/02 07:08:02;;;;;;;4.75;3.00;;;11.50;99.90;;;;;;5115890;28;20169;-65
2022/01/02 07:10:28;;;;;;;7.30;2.90;;;11.50;99.90;;;;;;5115820;28;20181;-66
2022/01/02 07:12:54;;;;;;;4.30;2.90;;;11.50;99.90;;;;;;5116095;28;20177;-65
2022/01/02 07:15:20;;;;;;;5.35;2.70;;;11.50;99.90;;;;;;5116003;28;20177;-65
2022/01/02 07:17:45;;;;;;;5.93;3.00;;;11.60;99.90;;;;;;5116037;28;20201;-65
2022/01/02 07:20:12;;;;;;;3.38;2.85;;;11.60;99.90;;;;;;5115963;28;20173;-65
2022/01/02 07:22:40;;;;;;;5.45;2.88;;;11.60;99.90;;;;;;5115661;28;20166;-61
2022/01/02 07:25:07;;;;;;;4.68;2.95;;;11.70;99.90;;;;;;5116317;28;20181;-65
2022/01/02 07:27:33;;;;;;;4.72;3.20;;;11.60;99.90;;;;;;5133850;27;20268;-66
2022/01/02 07:29:59;;;;;;;4.53;2.90;;;11.60;99.90;;;;;;5138552;27;20251;-66
2022/01/02 07:32:25;;;;;;;3.88;3.10;;;11.60;99.90;;;;;;5137497;27;20176;-66
2022/01/02 07:34:51;;;;;;;3.97;3.22;;;11.60;99.90;;;;;;5135103;27;20526;-66
2022/01/02 07:37:17;;;;;;;5.20;3.38;;;11.70;99.90;;;;;;5135835;27;20204;-66
2022/01/02 07:39:42;;;;;;;3.42;3.10;;;11.70;99.90;;;;;;5134786;27;20629;-65
2022/01/02 07:42:08;;;;;;;5.88;3.30;;;11.70;99.90;;;;;;5136085;27;20169;-65
2022/01/02 07:44:36;;;;;;;4.60;3.40;;;11.70;99.90;;;;;;5136023;27;20185;-65
2022/01/02 07:47:06;;;;;;;6.63;3.75;;;11.60;99.90;;;;;;5136130;27;20188;-65
2022/01/02 07:49:32;;;;;;;8.60;3.40;;;11.60;99.90;;;;;;5135696;27;20194;-65
2022/01/02 07:51:57;;;;;;;5.00;3.80;;;11.50;99.90;;;;;;5123269;27;20181;-65
2022/01/02 07:54:23;;;;;;;6.43;3.80;;;11.50;99.90;;;;;;5115131;28;20173;-65
2022/01/02 07:56:49;;;;;;;6.53;3.97;;;11.50;99.90;;;;;;5115001;28;20173;-64
2022/01/02 07:59:14;;;;;;;4.78;3.40;;;11.60;99.90;;;;;;5114865;28;20235;-65
2022/01/02 08:01:40;;;;;;;5.22;3.70;;;11.50;99.90;;;;;;5113775;28;20606;-65
2022/01/02 08:04:06;;;;;;;4.03;3.63;;;11.30;99.90;;;;;;5115105;28;20619;-65
2022/01/02 08:06:31;;;;;;;5.00;4.20;;;11.30;99.90;;;;;;5112147;28;20259;-63
2022/01/02 08:08:57;;;;;;;6.93;3.90;;;11.30;99.90;;;;;;5112811;28;20173;-64
2022/01/02 08:11:22;;;;;;;8.02;3.90;;;11.30;99.90;;;;;;5113103;28;20218;-64
2022/01/02 08:13:48;;;;;;;5.32;4.05;;;11.30;99.90;;;;;;5113407;28;20170;-68
2022/01/02 08:16:14;;;;;;;7.53;4.18;;;11.30;99.90;;;;;;5114527;28;20271;-63
2022/01/02 08:18:40;;;;;;;4.78;4.18;;;11.30;99.90;;;;;;5114749;28;20272;-63
2022/01/02 08:21:07;;;;;;;4.25;3.65;;;11.30;99.90;;;;;;5113568;28;20235;-63
2022/01/02 08:23:33;;;;;;;5.70;4.25;;;11.30;99.90;;;;;;5119635;27;20169;-62
2022/01/02 08:25:59;;;;;;;6.30;4.07;;;11.30;99.90;;;;;;5135240;27;20196;-63
2022/01/02 08:28:25;;;;;;;5.80;4.22;;;11.30;99.90;;;;;;5135331;27;20223;-63
2022/01/02 08:30:50;;;;;;;5.53;4.10;;;11.40;99.90;;;;;;5135251;27;20180;-63
2022/01/02 08:33:17;;;;;;;8.02;4.40;;;11.40;99.90;;;;;;5133855;27;20165;-63
2022/01/02 08:35:44;;;;;;;7.15;4.40;;;11.40;99.90;;;;;;5134867;27;20168;-63
2022/01/02 08:38:10;;;;;;;7.30;4.38;;;11.40;99.90;;;;;;5134738;27;20200;-63
2022/01/02 08:40:40;;;;;;;6.10;4.13;;;11.60;99.90;;;;;;5134802;27;20174;-63
2022/01/02 08:43:06;;;;;;;5.68;4.35;;;11.60;99.90;;;;;;5135028;27;20256;-63
2022/01/02 08:45:33;;;;;;;6.55;4.38;;;11.60;99.90;;;;;;5134862;27;20172;-62
2022/01/02 08:47:59;;;;;;;5.63;4.40;;;11.70;99.90;;;;;;5135509;27;20185;-63
2022/01/02 08:50:25;;;;;;;5.70;4.55;;;11.70;99.90;;;;;;5134897;27;20177;-63
2022/01/02 08:52:51;;;;;;;6.50;4.18;;;11.70;99.90;;;;;;5131734;27;20264;-63
2022/01/02 08:55:16;;;;;;;6.97;4.40;;;11.80;99.90;;;;;;5112807;28;20256;-63
2022/01/02 08:57:42;;;;;;;6.20;4.15;;;11.70;99.90;;;;;;5114000;28;20242;-63
2022/01/02 09:00:09;;;;;;;6.97;4.00;;;11.80;99.90;;;;;;5113852;28;20173;-66
2022/01/02 09:02:35;;;;;;;6.13;4.13;;;12.00;99.90;;;;;;5113790;28;20176;-64
2022/01/02 09:05:00;;;;;;;4.90;4.05;;;12.10;99.90;;;;;;5114212;28;20177;-64
2022/01/02 09:07:26;;;;;;;6.03;4.18;;;12.10;99.90;;;;;;5113727;28;20173;-64
2022/01/02 09:09:52;;;;;;;6.07;4.53;;;12.00;99.90;;;;;;5117382;27;20301;-64
2022/01/02 09:12:18;;;;;;;8.25;4.25;;;12.10;99.90;;;;;;5134544;27;20526;-64
2022/01/02 09:14:44;;;;;;;5.65;4.45;;;12.10;99.90;;;;;;5134522;27;20206;-64
2022/01/02 09:17:10;;;;;;;8.40;4.60;;;12.00;99.90;;;;;;5134405;27;20207;-64
2022/01/02 09:19:36;;;;;;;8.20;3.97;;;12.10;99.90;;;;;;5134412;27;20260;-63
2022/01/02 09:22:03;;;;;;;7.90;4.82;;;12.20;99.90;;;;;;5134457;28;20255;-63
2022/01/02 09:24:29;;;;;;;7.45;4.05;;;12.30;99.90;;;;;;5133123;28;20176;-63
2022/01/02 09:26:55;;;;;;;5.93;4.07;;;12.20;99.90;;;;;;5134699;27;20172;-64
2022/01/02 09:29:21;;;;;;;5.82;4.25;;;12.30;99.90;;;;;;5134909;28;20176;-64
2022/01/02 09:31:47;;;;;;;5.57;3.65;;;12.20;99.90;;;;;;5134404;28;20179;-63
2022/01/02 09:34:12;;;;;;;5.47;3.90;;;12.20;99.90;;;;;;5135906;27;20560;-64
2022/01/02 09:36:38;;;;;;;5.25;4.25;;;12.20;99.90;;;;;;5137313;27;20168;-61
2022/01/02 09:39:05;;;;;;;6.57;3.92;;;12.30;99.90;;;;;;5136202;27;20177;-63
2022/01/02 09:41:31;;;;;;;6.47;3.95;;;12.30;99.90;;;;;;5137214;27;20181;-63
2022/01/02 09:43:56;;;;;;;8.77;3.78;;;12.30;99.90;;;;;;5136989;27;20176;-63
2022/01/02 09:46:24;;;;;;;5.88;4.22;;;12.40;99.90;;;;;;5138229;27;20556;-62
2022/01/02 09:48:51;;;;;;;6.65;4.00;;;12.40;99.90;;;;;;5138354;27;20180;-62
2022/01/02 09:51:20;;;;;;;5.88;4.10;;;12.40;99.90;;;;;;5137793;27;20172;-63
2022/01/02 09:53:47;;;;;;;6.43;4.47;;;12.60;99.90;;;;;;5138049;27;20678;-63
2022/01/02 09:56:14;;;;;;;8.18;4.55;;;12.60;99.90;;;;;;5138243;27;20596;-62
2022/01/02 09:58:42;;;;;;;7.97;4.18;;;12.50;99.90;;;;;;5138066;27;20200;-65
2022/01/02 10:01:14;;;;;;;7.95;4.55;;;12.40;99.90;;;;;;5137935;27;20209;-67
2022/01/02 10:03:50;;;;;;;6.03;4.28;;;12.40;99.90;;;;;;5138103;27;20202;-65
2022/01/02 10:06:17;;;;;;;7.50;3.97;;;12.40;99.90;;;;;;5137763;27;20498;-65
2022/01/02 10:08:43;;;;;;;8.00;4.13;;;12.50;99.90;;;;;;5137984;27;20180;-64
2022/01/02 10:11:22;;;;;;;5.43;3.72;;;12.40;99.90;;;;;;5137663;27;20297;-64
2022/01/02 10:14:05;;;;;;;4.85;3.75;;;12.50;99.90;;;;;;5137911;27;20235;-64
2022/01/02 10:16:35;;;;;;;7.75;4.22;;;12.60;99.90;;;;;;5137796;27;20199;-64
2022/01/02 10:19:17;;;;;;;6.32;3.90;;;12.70;99.90;;;;;;5137866;27;20243;-63
2022/01/02 10:21:51;;;;;;;7.75;4.03;;;12.90;99.90;;;;;;5137773;27;20172;-64
2022/01/02 10:24:22;;;;;;;6.13;3.53;;;13.00;99.90;;;;;;5137253;27;20183;-63
2022/01/02 10:27:13;;;;;;;7.93;4.03;;;13.00;99.90;;;;;;5137340;27;20253;-64
2022/01/02 10:29:41;;;;;;;7.50;3.88;;;13.10;99.90;;;;;;5129765;27;20185;-65
2022/01/02 10:32:27;;;;;;;7.68;3.85;;;13.10;99.90;;;;;;5137110;27;20180;-63
2022/01/02 10:35:08;;;;;;;7.25;3.80;;;13.10;99.90;;;;;;5136419;27;20175;-64
2022/01/02 10:37:34;;;;;;;6.55;3.85;;;13.10;99.90;;;;;;5137429;27;20645;-64
2022/01/02 10:39:59;;;;;;;8.18;3.90;;;13.10;99.90;;;;;;5136705;27;20263;-64
2022/01/02 10:42:25;;;;;;;7.07;3.97;;;13.20;99.90;;;;;;5137325;27;20196;-64
2022/01/02 10:44:50;;;;;;;7.53;3.83;;;13.30;99.90;;;;;;5136537;27;20177;-64
2022/01/02 10:47:22;;;;;;;7.65;3.78;;;13.20;99.90;;;;;;5136934;27;20216;-65
2022/01/02 10:49:47;;;;;;;7.70;3.97;;;13.50;99.90;;;;;;5137440;27;20206;-65
2022/01/02 10:52:35;;;;;;;8.98;3.72;;;13.50;99.90;;;;;;5136638;27;20168;-64
2022/01/02 10:55:07;;;;;;;7.65;3.83;;;13.60;99.90;;;;;;5136847;27;20161;-65
2022/01/02 10:57:33;;;;;;;6.20;3.88;;;13.60;99.90;;;;;;5137113;27;20638;-64
2022/01/02 11:00:00;;;;;;;6.53;3.38;;;13.60;99.90;;;;;;5137074;27;20173;-65
2022/01/02 11:02:27;;;;;;;5.55;3.90;;;13.50;99.90;;;;;;5135631;27;20619;-64
2022/01/02 11:05:04;;;;;;;6.03;3.10;;;13.30;99.90;;;;;;5137200;27;20179;-65
2022/01/02 11:07:45;;;;;;;5.47;3.15;;;13.40;99.90;;;;;;5136883;27;20526;-63
2022/01/02 11:10:17;;;;;;;6.45;3.90;;;13.30;99.90;;;;;;5136852;27;20149;-63
2022/01/02 11:12:43;;;;;;;5.63;3.80;;;13.30;99.90;;;;;;5136065;27;20653;-63
2022/01/02 11:15:11;;;;;;;5.88;3.35;;;13.30;99.90;;;;;;5136596;27;20568;-63
2022/01/02 11:17:38;;;;;;;6.15;3.35;;;13.30;99.90;;;;;;5136351;27;20240;-64
2022/01/02 11:20:08;;;;;;;5.82;3.65;;;13.30;99.90;;;;;;5135393;27;20211;-64
2022/01/02 11:23:00;;;;;;;7.57;3.80;;;13.30;99.90;;;;;;5136536;27;20153;-64
2022/01/02 11:25:37;;;;;;;7.78;3.55;;;13.40;99.90;;;;;;5139001;27;20199;-64
2022/01/02 11:28:07;;;;;;;7.28;3.33;;;13.60;99.90;;;;;;5138294;27;20168;-63
2022/01/02 11:30:33;;;;;;;7.80;3.83;;;13.70;99.90;;;;;;5136421;27;20255;-63
2022/01/02 11:33:16;;;;;;;7.32;3.40;;;13.80;99.90;;;;;;5136686;27;20277;-63
2022/01/02 11:35:47;;;;;;;5.15;3.60;;;13.80;99.90;;;;;;5136203;27;20165;-63
2022/01/02 11:38:15;;;;;;;7.07;3.60;;;14.00;99.90;;;;;;5136281;27;20212;-63
2022/01/02 11:40:56;;;;;;;6.50;3.70;;;14.20;99.90;;;;;;5136168;27;20197;-64
2022/01/02 11:43:46;;;;;;;6.10;3.25;;;14.10;99.90;;;;;;5136191;27;20638;-63
2022/01/02 11:46:21;;;;;;;6.28;3.38;;;14.10;99.90;;;;;;5136041;27;20241;-63
2022/01/02 11:49:17;;;;;;;7.50;3.40;;;14.10;99.90;;;;;;5136604;27;20180;-64
2022/01/02 11:51:53;;;;;;;10.27;2.90;;;14.20;99.90;;;;;;5122978;27;20181;-63
2022/01/02 11:54:40;;;;;;;5.43;3.25;;;14.30;99.90;;;;;;5135988;27;20466;-63
2022/01/02 11:57:26;;;;;;;4.35;2.58;;;14.30;99.90;;;;;;5134877;27;20203;-65
2022/01/02 11:59:53;;;;;;;5.55;2.75;;;14.50;99.90;;;;;;5124816;27;20196;-63
2022/01/02 12:02:19;;;;;;;6.85;3.20;;;14.50;99.90;;;;;;5136021;27;20168;-62
2022/01/02 12:04:59;;;;;;;5.85;2.97;;;14.60;99.90;;;;;;5135455;27;20238;-63
2022/01/02 12:07:34;;;;;;;7.35;3.33;;;14.60;99.90;;;;;;5135663;27;20192;-63
2022/01/02 12:12:56;;;;;;;7.32;3.20;;;14.70;99.90;;;;;;5135573;27;20263;-63
2022/01/02 12:15:23;;;;;;;5.32;2.75;;;14.80;99.90;;;;;;5135465;27;20168;-63
2022/01/02 12:18:08;;;;;;;6.45;2.90;;;14.90;99.90;;;;;;5135552;27;20264;-63
2022/01/02 12:20:57;;;;;;;7.38;2.80;;;14.70;99.90;;;;;;5135431;27;20165;-63
2022/01/02 12:23:35;;;;;;;5.38;2.50;;;14.50;99.90;;;;;;5135546;27;20556;-63
2022/01/02 12:26:05;;;;;;;6.10;3.20;;;14.30;99.90;;;;;;5135381;27;20175;-66
2022/01/02 12:28:57;;;;;;;8.30;3.20;;;14.30;99.90;;;;;;5135234;27;20208;-64
2022/01/02 12:31:35;;;;;;;6.75;2.63;;;14.20;99.90;;;;;;5135284;27;20161;-65
2022/01/02 12:34:08;;;;;;;7.30;3.38;;;14.20;99.90;;;;;;5135142;27;20164;-64
2022/01/02 12:36:34;;;;;;;6.22;2.90;;;14.20;99.90;;;;;;5133406;27;20600;-62
2022/01/02 12:39:05;;;;;;;5.43;2.53;;;14.00;99.90;;;;;;5118821;27;20586;-62
2022/01/02 12:41:33;;;;;;;5.95;2.95;;;14.10;99.90;;;;;;5113061;28;20177;-62
2022/01/02 12:44:03;;;;;;;7.18;2.97;;;14.10;99.90;;;;;;5114172;27;20170;-62
2022/01/02 12:46:33;;;;;;;5.68;2.78;;;14.00;99.90;;;;;;5113341;28;20170;-62
2022/01/02 12:48:59;;;;;;;7.13;3.88;;;14.00;99.90;;;;;;5113221;28;20622;-62
2022/01/02 12:51:30;;;;;;;7.85;3.45;;;14.00;99.90;;;;;;5114010;28;20290;-61
2022/01/02 12:54:17;;;;;;;6.82;3.00;;;14.10;99.90;;;;;;5114180;28;20170;-61
2022/01/02 12:56:46;;;;;;;7.68;2.90;;;14.20;99.90;;;;;;5113137;28;20165;-62